sensor_id;sensor_type;location;lat;lon;timestamp;P1;durP1;ratioP1;P2;durP2;ratioP2
31238;SDS011;17871;31.584;74.450;2023-03-14T00:00:09;50.15;;;20.92;;
31238;SDS011;17871;31.584;74.450;2023-03-14T00:02:42;54.75;;;23.85;;
31238;SDS011;17871;31.584;74.450;2023-03-14T00:05:10;73.63;;;28.35;;
31238;SDS011;17871;31.584;74.450;2023-03-14T00:07:39;83.90;;;32.63;;
31238;SDS011;17871;31.584;74.450;2023-03-14T00:10:10;93.15;;;36.17;;
31238;SDS011;17871;31.584;74.450;2023-03-14T00:12:42;113.40;;;38.30;;
31238;SDS011;17871;31.584;74.450;2023-03-14T00:15:11;113.47;;;41.05;;
31238;SDS011;17871;31.584;74.450;2023-03-14T00:17:42;118.40;;;41.00;;
31238;SDS011;17871;31.584;74.450;2023-03-14T00:20:12;141.45;;;52.85;;
31238;SDS011;17871;31.584;74.450;2023-03-14T00:22:41;150.93;;;55.72;;
31238;SDS011;17871;31.584;74.450;2023-03-14T00:25:11;163.55;;;64.97;;
31238;SDS011;17871;31.584;74.450;2023-03-14T00:27:40;197.25;;;72.20;;
31238;SDS011;17871;31.584;74.450;2023-03-14T00:30:12;194.65;;;73.82;;
31238;SDS011;17871;31.584;74.450;2023-03-14T00:32:41;217.50;;;78.30;;
31238;SDS011;17871;31.584;74.450;2023-03-14T00:35:10;213.68;;;78.82;;
31238;SDS011;17871;31.584;74.450;2023-03-14T00:37:39;215.90;;;78.93;;
31238;SDS011;17871;31.584;74.450;2023-03-14T00:40:08;191.40;;;73.22;;
31238;SDS011;17871;31.584;74.450;2023-03-14T00:42:38;169.85;;;66.85;;
31238;SDS011;17871;31.584;74.450;2023-03-14T00:45:07;198.38;;;70.88;;
31238;SDS011;17871;31.584;74.450;2023-03-14T00:47:38;165.40;;;65.30;;
31238;SDS011;17871;31.584;74.450;2023-03-14T00:50:07;171.30;;;70.38;;
31238;SDS011;17871;31.584;74.450;2023-03-14T00:52:38;166.02;;;68.50;;
31238;SDS011;17871;31.584;74.450;2023-03-14T00:55:08;161.25;;;68.00;;
31238;SDS011;17871;31.584;74.450;2023-03-14T00:57:37;150.00;;;64.20;;
31238;SDS011;17871;31.584;74.450;2023-03-14T01:00:06;145.30;;;61.50;;
31238;SDS011;17871;31.584;74.450;2023-03-14T01:02:42;159.15;;;61.28;;
31238;SDS011;17871;31.584;74.450;2023-03-14T01:05:14;157.77;;;59.30;;
31238;SDS011;17871;31.584;74.450;2023-03-14T01:07:49;149.35;;;62.03;;
31238;SDS011;17871;31.584;74.450;2023-03-14T01:10:19;167.55;;;61.72;;
31238;SDS011;17871;31.584;74.450;2023-03-14T01:12:52;145.05;;;62.75;;
31238;SDS011;17871;31.584;74.450;2023-03-14T01:15:24;140.68;;;56.22;;
31238;SDS011;17871;31.584;74.450;2023-03-14T01:17:55;117.57;;;51.25;;
31238;SDS011;17871;31.584;74.450;2023-03-14T01:20:26;113.65;;;53.17;;
31238;SDS011;17871;31.584;74.450;2023-03-14T01:22:58;111.82;;;48.97;;
31238;SDS011;17871;31.584;74.450;2023-03-14T01:25:28;112.35;;;47.50;;
31238;SDS011;17871;31.584;74.450;2023-03-14T01:27:58;114.65;;;43.42;;
31238;SDS011;17871;31.584;74.450;2023-03-14T01:30:29;108.75;;;46.03;;
31238;SDS011;17871;31.584;74.450;2023-03-14T01:32:59;108.63;;;42.38;;
31238;SDS011;17871;31.584;74.450;2023-03-14T01:35:29;120.72;;;45.10;;
31238;SDS011;17871;31.584;74.450;2023-03-14T01:38:00;90.18;;;37.97;;
31238;SDS011;17871;31.584;74.450;2023-03-14T01:40:29;99.63;;;39.28;;
31238;SDS011;17871;31.584;74.450;2023-03-14T01:43:06;94.85;;;37.90;;
31238;SDS011;17871;31.584;74.450;2023-03-14T01:48:59;83.72;;;37.33;;
31238;SDS011;17871;31.584;74.450;2023-03-14T01:51:58;77.53;;;35.88;;
31238;SDS011;17871;31.584;74.450;2023-03-14T01:54:34;99.55;;;38.35;;
31238;SDS011;17871;31.584;74.450;2023-03-14T01:57:13;85.43;;;36.53;;
31238;SDS011;17871;31.584;74.450;2023-03-14T01:59:51;82.28;;;38.30;;
31238;SDS011;17871;31.584;74.450;2023-03-14T02:02:25;88.28;;;38.53;;
31238;SDS011;17871;31.584;74.450;2023-03-14T02:04:57;82.40;;;38.92;;
31238;SDS011;17871;31.584;74.450;2023-03-14T02:07:46;97.97;;;39.95;;
31238;SDS011;17871;31.584;74.450;2023-03-14T02:10:33;97.10;;;41.00;;
31238;SDS011;17871;31.584;74.450;2023-03-14T02:15:59;98.35;;;44.85;;
31238;SDS011;17871;31.584;74.450;2023-03-14T02:18:41;114.47;;;54.67;;
31238;SDS011;17871;31.584;74.450;2023-03-14T02:27:11;166.70;;;74.57;;
31238;SDS011;17871;31.584;74.450;2023-03-14T02:32:21;166.13;;;66.30;;
31238;SDS011;17871;31.584;74.450;2023-03-14T02:34:54;171.85;;;71.78;;
31238;SDS011;17871;31.584;74.450;2023-03-14T02:37:28;178.50;;;68.40;;
31238;SDS011;17871;31.584;74.450;2023-03-14T02:40:05;207.52;;;66.03;;
31238;SDS011;17871;31.584;74.450;2023-03-14T02:42:36;168.48;;;62.97;;
31238;SDS011;17871;31.584;74.450;2023-03-14T02:47:46;175.00;;;58.33;;
31238;SDS011;17871;31.584;74.450;2023-03-14T02:50:24;179.35;;;62.90;;
31238;SDS011;17871;31.584;74.450;2023-03-14T02:53:00;127.78;;;51.45;;
31238;SDS011;17871;31.584;74.450;2023-03-14T02:55:29;137.32;;;50.85;;
31238;SDS011;17871;31.584;74.450;2023-03-14T02:58:06;120.75;;;48.97;;
31238;SDS011;17871;31.584;74.450;2023-03-14T03:00:36;110.28;;;42.97;;
31238;SDS011;17871;31.584;74.450;2023-03-14T03:03:08;106.75;;;46.05;;
31238;SDS011;17871;31.584;74.450;2023-03-14T03:05:39;119.72;;;47.22;;
31238;SDS011;17871;31.584;74.450;2023-03-14T03:08:11;109.18;;;44.35;;
31238;SDS011;17871;31.584;74.450;2023-03-14T03:10:40;115.32;;;44.03;;
31238;SDS011;17871;31.584;74.450;2023-03-14T03:13:10;106.00;;;41.30;;
31238;SDS011;17871;31.584;74.450;2023-03-14T03:15:41;104.90;;;38.25;;
31238;SDS011;17871;31.584;74.450;2023-03-14T03:18:11;111.35;;;37.60;;
31238;SDS011;17871;31.584;74.450;2023-03-14T03:20:42;75.88;;;33.22;;
31238;SDS011;17871;31.584;74.450;2023-03-14T03:23:13;77.25;;;33.60;;
31238;SDS011;17871;31.584;74.450;2023-03-14T03:25:47;77.32;;;29.83;;
31238;SDS011;17871;31.584;74.450;2023-03-14T03:28:19;71.15;;;23.80;;
31238;SDS011;17871;31.584;74.450;2023-03-14T03:30:50;65.50;;;22.00;;
31238;SDS011;17871;31.584;74.450;2023-03-14T03:33:20;50.72;;;21.95;;
31238;SDS011;17871;31.584;74.450;2023-03-14T03:35:52;54.50;;;19.85;;
31238;SDS011;17871;31.584;74.450;2023-03-14T03:38:28;65.55;;;23.85;;
31238;SDS011;17871;31.584;74.450;2023-03-14T03:41:07;58.13;;;19.33;;
31238;SDS011;17871;31.584;74.450;2023-03-14T03:43:38;43.05;;;19.73;;
31238;SDS011;17871;31.584;74.450;2023-03-14T03:46:10;42.25;;;18.95;;
31238;SDS011;17871;31.584;74.450;2023-03-14T03:48:40;51.38;;;20.02;;
31238;SDS011;17871;31.584;74.450;2023-03-14T03:51:13;55.75;;;19.30;;
31238;SDS011;17871;31.584;74.450;2023-03-14T03:53:43;41.55;;;18.15;;
31238;SDS011;17871;31.584;74.450;2023-03-14T03:56:18;33.42;;;14.05;;
31238;SDS011;17871;31.584;74.450;2023-03-14T03:58:49;33.88;;;11.50;;
31238;SDS011;17871;31.584;74.450;2023-03-14T04:01:19;32.30;;;14.25;;
31238;SDS011;17871;31.584;74.450;2023-03-14T04:03:52;43.70;;;16.98;;
31238;SDS011;17871;31.584;74.450;2023-03-14T04:06:24;80.82;;;23.63;;
31238;SDS011;17871;31.584;74.450;2023-03-14T04:08:57;41.67;;;17.13;;
31238;SDS011;17871;31.584;74.450;2023-03-14T04:11:36;61.42;;;18.38;;
31238;SDS011;17871;31.584;74.450;2023-03-14T04:14:25;41.28;;;14.50;;
31238;SDS011;17871;31.584;74.450;2023-03-14T04:17:21;50.75;;;14.18;;
31238;SDS011;17871;31.584;74.450;2023-03-14T04:19:51;63.90;;;34.60;;
31238;SDS011;17871;31.584;74.450;2023-03-14T04:22:30;94.88;;;42.20;;
31238;SDS011;17871;31.584;74.450;2023-03-14T04:25:00;47.55;;;15.00;;
31238;SDS011;17871;31.584;74.450;2023-03-14T04:27:35;245.25;;;129.43;;
31238;SDS011;17871;31.584;74.450;2023-03-14T04:30:13;42.90;;;22.05;;
31238;SDS011;17871;31.584;74.450;2023-03-14T04:32:49;34.70;;;14.13;;
31238;SDS011;17871;31.584;74.450;2023-03-14T04:35:22;31.95;;;14.07;;
31238;SDS011;17871;31.584;74.450;2023-03-14T04:37:59;45.88;;;14.05;;
31238;SDS011;17871;31.584;74.450;2023-03-14T04:40:33;46.92;;;13.20;;
31238;SDS011;17871;31.584;74.450;2023-03-14T04:43:06;36.95;;;14.35;;
31238;SDS011;17871;31.584;74.450;2023-03-14T04:45:44;46.05;;;15.27;;
31238;SDS011;17871;31.584;74.450;2023-03-14T04:48:13;35.85;;;12.68;;
31238;SDS011;17871;31.584;74.450;2023-03-14T04:50:42;44.38;;;13.93;;
31238;SDS011;17871;31.584;74.450;2023-03-14T04:53:11;31.10;;;11.60;;
31238;SDS011;17871;31.584;74.450;2023-03-14T04:55:47;44.67;;;14.10;;
31238;SDS011;17871;31.584;74.450;2023-03-14T04:58:19;28.63;;;13.65;;
31238;SDS011;17871;31.584;74.450;2023-03-14T05:00:50;33.47;;;13.70;;
31238;SDS011;17871;31.584;74.450;2023-03-14T05:03:58;43.22;;;13.85;;
31238;SDS011;17871;31.584;74.450;2023-03-14T05:06:47;38.92;;;13.10;;
31238;SDS011;17871;31.584;74.450;2023-03-14T05:09:33;32.72;;;13.23;;
31238;SDS011;17871;31.584;74.450;2023-03-14T05:12:40;36.05;;;13.35;;
31238;SDS011;17871;31.584;74.450;2023-03-14T05:15:41;36.35;;;14.00;;
31238;SDS011;17871;31.584;74.450;2023-03-14T05:18:42;29.60;;;12.95;;
31238;SDS011;17871;31.584;74.450;2023-03-14T05:21:36;26.40;;;13.68;;
31238;SDS011;17871;31.584;74.450;2023-03-14T05:24:34;44.47;;;13.05;;
31238;SDS011;17871;31.584;74.450;2023-03-14T05:27:38;36.08;;;14.75;;
31238;SDS011;17871;31.584;74.450;2023-03-14T05:30:30;26.60;;;12.43;;
31238;SDS011;17871;31.584;74.450;2023-03-14T05:33:04;34.55;;;13.55;;
31238;SDS011;17871;31.584;74.450;2023-03-14T05:35:52;44.88;;;14.02;;
31238;SDS011;17871;31.584;74.450;2023-03-14T05:38:39;40.35;;;15.38;;
31238;SDS011;17871;31.584;74.450;2023-03-14T05:41:28;39.20;;;14.80;;
31238;SDS011;17871;31.584;74.450;2023-03-14T05:44:16;89.93;;;17.02;;
31238;SDS011;17871;31.584;74.450;2023-03-14T05:46:54;37.35;;;14.80;;
31238;SDS011;17871;31.584;74.450;2023-03-14T05:49:41;38.25;;;14.32;;
31238;SDS011;17871;31.584;74.450;2023-03-14T05:52:30;45.22;;;14.95;;
31238;SDS011;17871;31.584;74.450;2023-03-14T05:55:07;43.28;;;16.30;;
31238;SDS011;17871;31.584;74.450;2023-03-14T05:57:52;36.60;;;15.95;;
31238;SDS011;17871;31.584;74.450;2023-03-14T06:00:33;58.97;;;20.08;;
31238;SDS011;17871;31.584;74.450;2023-03-14T06:03:25;62.50;;;22.90;;
31238;SDS011;17871;31.584;74.450;2023-03-14T06:05:54;59.25;;;23.52;;
31238;SDS011;17871;31.584;74.450;2023-03-14T06:08:24;41.50;;;20.75;;
31238;SDS011;17871;31.584;74.450;2023-03-14T06:10:53;53.70;;;22.15;;
31238;SDS011;17871;31.584;74.450;2023-03-14T06:13:27;38.20;;;18.63;;
31238;SDS011;17871;31.584;74.450;2023-03-14T06:15:57;39.72;;;16.17;;
31238;SDS011;17871;31.584;74.450;2023-03-14T06:18:29;38.25;;;16.42;;
31238;SDS011;17871;31.584;74.450;2023-03-14T06:20:59;54.95;;;18.00;;
31238;SDS011;17871;31.584;74.450;2023-03-14T06:23:28;52.58;;;18.33;;
31238;SDS011;17871;31.584;74.450;2023-03-14T06:26:00;45.25;;;17.73;;
31238;SDS011;17871;31.584;74.450;2023-03-14T06:28:30;45.67;;;19.70;;
31238;SDS011;17871;31.584;74.450;2023-03-14T06:31:01;48.75;;;21.02;;
31238;SDS011;17871;31.584;74.450;2023-03-14T06:33:37;46.83;;;19.80;;
31238;SDS011;17871;31.584;74.450;2023-03-14T06:36:07;42.17;;;18.35;;
31238;SDS011;17871;31.584;74.450;2023-03-14T06:38:40;73.05;;;24.52;;
31238;SDS011;17871;31.584;74.450;2023-03-14T06:41:09;49.25;;;21.55;;
31238;SDS011;17871;31.584;74.450;2023-03-14T06:43:41;51.10;;;24.00;;
31238;SDS011;17871;31.584;74.450;2023-03-14T06:46:15;69.53;;;25.95;;
31238;SDS011;17871;31.584;74.450;2023-03-14T06:48:44;53.85;;;25.70;;
31238;SDS011;17871;31.584;74.450;2023-03-14T06:51:17;59.85;;;24.60;;
31238;SDS011;17871;31.584;74.450;2023-03-14T06:53:47;40.60;;;20.20;;
31238;SDS011;17871;31.584;74.450;2023-03-14T06:56:19;65.47;;;23.40;;
31238;SDS011;17871;31.584;74.450;2023-03-14T06:58:48;64.30;;;25.13;;
31238;SDS011;17871;31.584;74.450;2023-03-14T07:03:55;60.03;;;25.42;;
31238;SDS011;17871;31.584;74.450;2023-03-14T07:06:26;67.45;;;25.13;;
31238;SDS011;17871;31.584;74.450;2023-03-14T07:08:57;61.67;;;21.77;;
31238;SDS011;17871;31.584;74.450;2023-03-14T07:11:29;44.97;;;19.30;;
31238;SDS011;17871;31.584;74.450;2023-03-14T07:13:58;38.38;;;17.83;;
31238;SDS011;17871;31.584;74.450;2023-03-14T07:16:27;36.40;;;17.85;;
31238;SDS011;17871;31.584;74.450;2023-03-14T07:18:59;43.13;;;15.38;;
31238;SDS011;17871;31.584;74.450;2023-03-14T07:21:30;48.55;;;16.25;;
31238;SDS011;17871;31.584;74.450;2023-03-14T07:24:06;51.35;;;18.92;;
31238;SDS011;17871;31.584;74.450;2023-03-14T07:26:36;50.20;;;17.88;;
31238;SDS011;17871;31.584;74.450;2023-03-14T07:29:05;57.42;;;17.77;;
31238;SDS011;17871;31.584;74.450;2023-03-14T07:31:35;25.50;;;14.27;;
31238;SDS011;17871;31.584;74.450;2023-03-14T07:34:04;33.17;;;14.63;;
31238;SDS011;17871;31.584;74.450;2023-03-14T07:36:38;43.80;;;14.77;;
31238;SDS011;17871;31.584;74.450;2023-03-14T07:39:07;21.05;;;11.02;;
31238;SDS011;17871;31.584;74.450;2023-03-14T07:41:59;27.77;;;11.80;;
31238;SDS011;17871;31.584;74.450;2023-03-14T07:44:45;34.13;;;13.65;;
31238;SDS011;17871;31.584;74.450;2023-03-14T07:47:14;39.40;;;16.15;;
31238;SDS011;17871;31.584;74.450;2023-03-14T07:49:44;34.13;;;15.43;;
31238;SDS011;17871;31.584;74.450;2023-03-14T07:52:13;32.13;;;13.35;;
31238;SDS011;17871;31.584;74.450;2023-03-14T07:54:42;34.03;;;10.68;;
31238;SDS011;17871;31.584;74.450;2023-03-14T07:57:11;44.22;;;16.67;;
31238;SDS011;17871;31.584;74.450;2023-03-14T07:59:40;42.28;;;15.25;;
31238;SDS011;17871;31.584;74.450;2023-03-14T08:02:12;36.75;;;14.63;;
31238;SDS011;17871;31.584;74.450;2023-03-14T08:04:42;23.20;;;10.43;;
31238;SDS011;17871;31.584;74.450;2023-03-14T08:07:11;57.50;;;14.75;;
31238;SDS011;17871;31.584;74.450;2023-03-14T08:09:40;52.17;;;16.35;;
31238;SDS011;17871;31.584;74.450;2023-03-14T08:12:09;38.40;;;14.57;;
31238;SDS011;17871;31.584;74.450;2023-03-14T08:14:38;54.47;;;17.00;;
31238;SDS011;17871;31.584;74.450;2023-03-14T08:17:07;46.03;;;20.98;;
31238;SDS011;17871;31.584;74.450;2023-03-14T08:19:37;43.90;;;19.25;;
31238;SDS011;17871;31.584;74.450;2023-03-14T08:22:05;36.85;;;15.60;;
31238;SDS011;17871;31.584;74.450;2023-03-14T08:24:35;30.33;;;13.93;;
31238;SDS011;17871;31.584;74.450;2023-03-14T08:27:03;45.30;;;14.98;;
31238;SDS011;17871;31.584;74.450;2023-03-14T08:29:35;33.33;;;14.25;;
31238;SDS011;17871;31.584;74.450;2023-03-14T08:32:04;32.08;;;10.80;;
31238;SDS011;17871;31.584;74.450;2023-03-14T08:34:34;20.00;;;11.63;;
31238;SDS011;17871;31.584;74.450;2023-03-14T08:37:03;23.30;;;11.68;;
31238;SDS011;17871;31.584;74.450;2023-03-14T08:39:42;126.55;;;17.58;;
31238;SDS011;17871;31.584;74.450;2023-03-14T08:42:11;38.78;;;12.68;;
31238;SDS011;17871;31.584;74.450;2023-03-14T08:44:40;42.45;;;13.10;;
31238;SDS011;17871;31.584;74.450;2023-03-14T08:47:09;32.83;;;11.70;;
31238;SDS011;17871;31.584;74.450;2023-03-14T08:49:41;34.08;;;12.82;;
31238;SDS011;17871;31.584;74.450;2023-03-14T08:52:10;30.25;;;14.05;;
31238;SDS011;17871;31.584;74.450;2023-03-14T08:54:45;27.23;;;10.43;;
31238;SDS011;17871;31.584;74.450;2023-03-14T08:57:15;41.72;;;12.60;;
31238;SDS011;17871;31.584;74.450;2023-03-14T08:59:44;34.22;;;15.98;;
31238;SDS011;17871;31.584;74.450;2023-03-14T09:02:13;45.03;;;16.38;;
31238;SDS011;17871;31.584;74.450;2023-03-14T09:04:42;51.47;;;17.98;;
31238;SDS011;17871;31.584;74.450;2023-03-14T09:07:12;46.30;;;19.15;;
31238;SDS011;17871;31.584;74.450;2023-03-14T09:09:41;40.25;;;17.80;;
31238;SDS011;17871;31.584;74.450;2023-03-14T09:12:10;51.10;;;20.38;;
31238;SDS011;17871;31.584;74.450;2023-03-14T09:14:39;60.92;;;26.38;;
31238;SDS011;17871;31.584;74.450;2023-03-14T09:17:08;73.85;;;27.60;;
31238;SDS011;17871;31.584;74.450;2023-03-14T09:19:37;69.15;;;25.42;;
31238;SDS011;17871;31.584;74.450;2023-03-14T09:22:06;55.45;;;27.10;;
31238;SDS011;17871;31.584;74.450;2023-03-14T09:24:35;62.95;;;29.23;;
31238;SDS011;17871;31.584;74.450;2023-03-14T09:27:04;63.08;;;31.02;;
31238;SDS011;17871;31.584;74.450;2023-03-14T09:29:33;80.07;;;36.90;;
31238;SDS011;17871;31.584;74.450;2023-03-14T09:34:34;86.03;;;33.58;;
31238;SDS011;17871;31.584;74.450;2023-03-14T09:37:03;62.70;;;32.33;;
31238;SDS011;17871;31.584;74.450;2023-03-14T09:39:32;76.57;;;33.95;;
31238;SDS011;17871;31.584;74.450;2023-03-14T09:42:02;67.90;;;34.42;;
31238;SDS011;17871;31.584;74.450;2023-03-14T09:44:36;71.95;;;31.50;;
31238;SDS011;17871;31.584;74.450;2023-03-14T09:47:11;78.80;;;30.65;;
31238;SDS011;17871;31.584;74.450;2023-03-14T09:49:42;63.13;;;33.13;;
31238;SDS011;17871;31.584;74.450;2023-03-14T09:52:12;33.30;;;13.95;;
31238;SDS011;17871;31.584;74.450;2023-03-14T09:54:50;31.88;;;11.15;;
31238;SDS011;17871;31.584;74.450;2023-03-14T09:57:21;16.85;;;8.82;;
31238;SDS011;17871;31.584;74.450;2023-03-14T09:59:56;22.25;;;8.98;;
31238;SDS011;17871;31.584;74.450;2023-03-14T10:02:35;65.60;;;13.10;;
31238;SDS011;17871;31.584;74.450;2023-03-14T10:05:07;45.58;;;17.33;;
31238;SDS011;17871;31.584;74.450;2023-03-14T10:07:44;35.10;;;14.75;;
31238;SDS011;17871;31.584;74.450;2023-03-14T10:10:17;20.15;;;11.85;;
31238;SDS011;17871;31.584;74.450;2023-03-14T10:12:48;31.02;;;13.70;;
31238;SDS011;17871;31.584;74.450;2023-03-14T10:15:26;36.33;;;13.43;;
31238;SDS011;17871;31.584;74.450;2023-03-14T10:18:02;19.83;;;10.50;;
31238;SDS011;17871;31.584;74.450;2023-03-14T10:20:36;31.27;;;13.02;;
31238;SDS011;17871;31.584;74.450;2023-03-14T10:23:18;33.38;;;12.15;;
31238;SDS011;17871;31.584;74.450;2023-03-14T10:26:26;29.63;;;14.38;;
31238;SDS011;17871;31.584;74.450;2023-03-14T10:28:52;34.67;;;16.85;;
31238;SDS011;17871;31.584;74.450;2023-03-14T10:31:32;39.70;;;15.68;;
31238;SDS011;17871;31.584;74.450;2023-03-14T10:34:16;38.25;;;16.40;;
31238;SDS011;17871;31.584;74.450;2023-03-14T10:36:55;42.55;;;16.13;;
31238;SDS011;17871;31.584;74.450;2023-03-14T10:39:39;35.90;;;15.93;;
31238;SDS011;17871;31.584;74.450;2023-03-14T10:42:27;29.05;;;13.77;;
31238;SDS011;17871;31.584;74.450;2023-03-14T10:45:03;38.65;;;15.55;;
31238;SDS011;17871;31.584;74.450;2023-03-14T10:47:35;43.72;;;16.85;;
31238;SDS011;17871;31.584;74.450;2023-03-14T10:50:27;35.95;;;16.70;;
31238;SDS011;17871;31.584;74.450;2023-03-14T10:53:00;44.22;;;18.42;;
31238;SDS011;17871;31.584;74.450;2023-03-14T10:55:39;41.35;;;18.15;;
31238;SDS011;17871;31.584;74.450;2023-03-14T11:00:52;41.08;;;17.50;;
31238;SDS011;17871;31.584;74.450;2023-03-14T11:03:29;48.33;;;16.90;;
31238;SDS011;17871;31.584;74.450;2023-03-14T11:08:57;45.17;;;15.57;;
31238;SDS011;17871;31.584;74.450;2023-03-14T11:11:35;35.08;;;12.77;;
31238;SDS011;17871;31.584;74.450;2023-03-14T11:14:25;37.10;;;15.73;;
31238;SDS011;17871;31.584;74.450;2023-03-14T11:27:54;68.72;;;20.92;;
31238;SDS011;17871;31.584;74.450;2023-03-14T11:30:50;68.80;;;23.58;;
31238;SDS011;17871;31.584;74.450;2023-03-14T11:37:43;85.05;;;24.45;;
31238;SDS011;17871;31.584;74.450;2023-03-14T11:40:01;60.47;;;19.80;;
31238;SDS011;17871;31.584;74.450;2023-03-14T11:42:34;66.22;;;21.45;;
31238;SDS011;17871;31.584;74.450;2023-03-14T11:45:04;37.50;;;17.77;;
31238;SDS011;17871;31.584;74.450;2023-03-14T11:47:43;36.72;;;15.27;;
31238;SDS011;17871;31.584;74.450;2023-03-14T11:50:17;40.40;;;14.40;;
31238;SDS011;17871;31.584;74.450;2023-03-14T11:52:55;43.60;;;14.80;;
31238;SDS011;17871;31.584;74.450;2023-03-14T11:55:35;43.85;;;17.67;;
31238;SDS011;17871;31.584;74.450;2023-03-14T12:00:45;87.72;;;19.73;;
31238;SDS011;17871;31.584;74.450;2023-03-14T12:08:43;72.03;;;20.45;;
31238;SDS011;17871;31.584;74.450;2023-03-14T12:14:20;66.90;;;21.55;;
31238;SDS011;17871;31.584;74.450;2023-03-14T12:16:55;48.47;;;21.70;;
31238;SDS011;17871;31.584;74.450;2023-03-14T12:19:43;55.03;;;21.52;;
31238;SDS011;17871;31.584;74.450;2023-03-14T12:22:30;61.63;;;22.48;;
31238;SDS011;17871;31.584;74.450;2023-03-14T12:25:05;55.45;;;22.88;;
31238;SDS011;17871;31.584;74.450;2023-03-14T12:27:47;61.63;;;21.58;;
31238;SDS011;17871;31.584;74.450;2023-03-14T12:30:38;40.65;;;20.52;;
31238;SDS011;17871;31.584;74.450;2023-03-14T12:47:00;50.13;;;19.38;;
31238;SDS011;17871;31.584;74.450;2023-03-14T12:49:43;37.33;;;19.65;;
31238;SDS011;17871;31.584;74.450;2023-03-14T12:52:37;59.30;;;22.20;;
31238;SDS011;17871;31.584;74.450;2023-03-14T12:55:15;62.78;;;22.77;;
31238;SDS011;17871;31.584;74.450;2023-03-14T13:00:32;62.65;;;30.00;;
31238;SDS011;17871;31.584;74.450;2023-03-14T13:03:23;80.50;;;26.33;;
31238;SDS011;17871;31.584;74.450;2023-03-14T13:05:57;69.65;;;27.10;;
31238;SDS011;17871;31.584;74.450;2023-03-14T13:11:16;81.35;;;30.80;;
31238;SDS011;17871;31.584;74.450;2023-03-14T13:13:49;87.28;;;26.65;;
31238;SDS011;17871;31.584;74.450;2023-03-14T13:16:24;60.45;;;21.25;;
31238;SDS011;17871;31.584;74.450;2023-03-14T13:19:18;51.67;;;19.27;;
31238;SDS011;17871;31.584;74.450;2023-03-14T13:21:51;50.35;;;19.65;;
31238;SDS011;17871;31.584;74.450;2023-03-14T13:24:32;56.55;;;20.88;;
31238;SDS011;17871;31.584;74.450;2023-03-14T13:27:02;51.05;;;21.83;;
31238;SDS011;17871;31.584;74.450;2023-03-14T13:29:31;48.33;;;22.30;;
31238;SDS011;17871;31.584;74.450;2023-03-14T13:32:02;49.90;;;23.75;;
31238;SDS011;17871;31.584;74.450;2023-03-14T13:34:47;64.57;;;28.17;;
31238;SDS011;17871;31.584;74.450;2023-03-14T13:37:17;85.32;;;28.20;;
31238;SDS011;17871;31.584;74.450;2023-03-14T13:39:50;70.07;;;27.45;;
31238;SDS011;17871;31.584;74.450;2023-03-14T13:42:20;74.40;;;28.13;;
31238;SDS011;17871;31.584;74.450;2023-03-14T13:44:54;63.28;;;24.52;;
31238;SDS011;17871;31.584;74.450;2023-03-14T13:47:25;64.15;;;23.75;;
31238;SDS011;17871;31.584;74.450;2023-03-14T13:49:55;63.80;;;23.52;;
31238;SDS011;17871;31.584;74.450;2023-03-14T13:52:36;43.40;;;22.25;;
31238;SDS011;17871;31.584;74.450;2023-03-14T13:55:13;51.88;;;20.42;;
31238;SDS011;17871;31.584;74.450;2023-03-14T13:57:45;55.42;;;19.60;;
31238;SDS011;17871;31.584;74.450;2023-03-14T14:00:25;57.95;;;20.92;;
31238;SDS011;17871;31.584;74.450;2023-03-14T14:02:59;48.08;;;19.73;;
31238;SDS011;17871;31.584;74.450;2023-03-14T14:05:29;48.72;;;20.27;;
31238;SDS011;17871;31.584;74.450;2023-03-14T14:07:59;38.05;;;20.20;;
31238;SDS011;17871;31.584;74.450;2023-03-14T14:10:32;65.95;;;20.27;;
31238;SDS011;17871;31.584;74.450;2023-03-14T14:13:04;52.00;;;20.08;;
31238;SDS011;17871;31.584;74.450;2023-03-14T14:15:43;61.83;;;20.40;;
31238;SDS011;17871;31.584;74.450;2023-03-14T14:18:16;68.70;;;20.40;;
31238;SDS011;17871;31.584;74.450;2023-03-14T14:20:49;49.80;;;18.40;;
31238;SDS011;17871;31.584;74.450;2023-03-14T14:23:19;52.83;;;20.63;;
31238;SDS011;17871;31.584;74.450;2023-03-14T14:25:55;47.00;;;20.38;;
31238;SDS011;17871;31.584;74.450;2023-03-14T14:28:35;51.30;;;20.50;;
31238;SDS011;17871;31.584;74.450;2023-03-14T14:36:41;44.17;;;19.05;;
31238;SDS011;17871;31.584;74.450;2023-03-14T14:39:21;56.10;;;23.10;;
31238;SDS011;17871;31.584;74.450;2023-03-14T14:41:54;48.05;;;22.17;;
31238;SDS011;17871;31.584;74.450;2023-03-14T14:46:55;49.15;;;23.75;;
31238;SDS011;17871;31.584;74.450;2023-03-14T14:49:30;73.97;;;24.05;;
31238;SDS011;17871;31.584;74.450;2023-03-14T14:52:13;102.78;;;23.85;;
31238;SDS011;17871;31.584;74.450;2023-03-14T14:57:22;49.00;;;23.55;;
31238;SDS011;17871;31.584;74.450;2023-03-14T14:59:55;78.30;;;25.08;;
31238;SDS011;17871;31.584;74.450;2023-03-14T15:02:39;55.80;;;25.17;;
31238;SDS011;17871;31.584;74.450;2023-03-14T15:05:14;75.43;;;27.83;;
31238;SDS011;17871;31.584;74.450;2023-03-14T15:07:45;75.03;;;33.97;;
31238;SDS011;17871;31.584;74.450;2023-03-14T15:10:20;74.22;;;31.23;;
31238;SDS011;17871;31.584;74.450;2023-03-14T15:12:51;84.95;;;28.55;;
31238;SDS011;17871;31.584;74.450;2023-03-14T15:15:20;77.95;;;33.58;;
31238;SDS011;17871;31.584;74.450;2023-03-14T15:17:49;73.18;;;29.55;;
31238;SDS011;17871;31.584;74.450;2023-03-14T15:20:18;66.47;;;26.38;;
31238;SDS011;17871;31.584;74.450;2023-03-14T15:22:51;60.47;;;26.10;;
31238;SDS011;17871;31.584;74.450;2023-03-14T15:25:20;74.90;;;34.05;;
31238;SDS011;17871;31.584;74.450;2023-03-14T15:28:25;76.95;;;33.25;;
31238;SDS011;17871;31.584;74.450;2023-03-14T15:30:57;93.93;;;40.20;;
31238;SDS011;17871;31.584;74.450;2023-03-14T15:33:27;71.57;;;33.60;;
31238;SDS011;17871;31.584;74.450;2023-03-14T15:35:56;49.60;;;24.42;;
31238;SDS011;17871;31.584;74.450;2023-03-14T15:38:25;57.10;;;24.73;;
31238;SDS011;17871;31.584;74.450;2023-03-14T15:40:54;53.40;;;23.95;;
31238;SDS011;17871;31.584;74.450;2023-03-14T15:43:23;59.05;;;24.73;;
31238;SDS011;17871;31.584;74.450;2023-03-14T15:45:52;66.28;;;26.60;;
31238;SDS011;17871;31.584;74.450;2023-03-14T15:48:21;64.82;;;25.63;;
31238;SDS011;17871;31.584;74.450;2023-03-14T15:50:50;79.05;;;30.50;;
31238;SDS011;17871;31.584;74.450;2023-03-14T15:53:19;121.22;;;51.78;;
31238;SDS011;17871;31.584;74.450;2023-03-14T15:55:48;155.10;;;53.53;;
31238;SDS011;17871;31.584;74.450;2023-03-14T15:58:19;120.03;;;47.90;;
31238;SDS011;17871;31.584;74.450;2023-03-14T16:00:48;124.85;;;49.78;;
31238;SDS011;17871;31.584;74.450;2023-03-14T16:03:18;170.20;;;63.25;;
31238;SDS011;17871;31.584;74.450;2023-03-14T16:05:47;125.93;;;48.17;;
31238;SDS011;17871;31.584;74.450;2023-03-14T16:08:16;111.22;;;43.97;;
31238;SDS011;17871;31.584;74.450;2023-03-14T16:10:45;123.97;;;37.70;;